QTR58 LIMC-OTHH
Flight info
| Callsign | QTR58 |
|---|---|
| Flight time | N/A |
| Altitude | 39000 |
| Route | SRN6LXROBAS6Q/35R ROBAS DCT IPDAB DCT LUMAV DCT NIKOL DCT SAL DCT VELIT DCT MEDUX UM867 KOGAT DCT RUGAS DCT BELGI UT38 VESAR DCT NIKAS/N0489F410 R785 RASLI P559 TRF R23 NEVOL N318 TAMRO T503 KSA M321 RESAL T533 RAPMA/N0522F290 Y214 ASPUS Y432 LADBO T142 LAEEB |
| Aircraft | A359/H-SDE2E3GHIJ3J4J5LM1ORWXY/LB1D1 |
Departure
| Time | N/A |
|---|---|
| Airport | Milan Malpensa International Airport (LIMC) |
Arrival
| Time | 2026-05-06 01:20 |
|---|---|
| Airport | Hamad International Airport (OTHH) |
| Time | Latitude | Longitude | Altitude | Speed | Heading |
|---|---|---|---|---|---|
| 2026-05-05 21:52 | 44.61543 | 12.33110 | 39001 ft | 490 kts | 111° |
| 2026-05-05 21:52 | 44.60299 | 12.37508 | 38998 ft | 490 kts | 111° |
| 2026-05-05 21:53 | 44.57784 | 12.46376 | 38999 ft | 490 kts | 111° |
| 2026-05-05 21:53 | 44.55256 | 12.55260 | 38998 ft | 490 kts | 112° |
| 2026-05-05 21:54 | 44.52732 | 12.64096 | 38998 ft | 490 kts | 112° |
| 2026-05-05 21:54 | 44.50196 | 12.72945 | 38998 ft | 490 kts | 112° |
| 2026-05-05 21:55 | 44.47646 | 12.81810 | 38998 ft | 490 kts | 112° |
| 2026-05-05 21:55 | 44.45098 | 12.90637 | 38998 ft | 490 kts | 112° |
| 2026-05-05 21:56 | 44.42538 | 12.99474 | 38999 ft | 490 kts | 112° |
| 2026-05-05 21:56 | 44.39968 | 13.08314 | 39001 ft | 490 kts | 112° |
| 2026-05-05 21:57 | 44.37388 | 13.17156 | 39001 ft | 490 kts | 112° |
| 2026-05-05 21:57 | 44.34892 | 13.25681 | 39004 ft | 490 kts | 112° |
| 2026-05-05 21:58 | 44.32304 | 13.34493 | 39000 ft | 490 kts | 112° |
| 2026-05-05 21:58 | 44.29709 | 13.43294 | 38998 ft | 490 kts | 112° |
| 2026-05-05 21:59 | 44.27541 | 13.50624 | 38998 ft | 490 kts | 112° |
| 2026-05-05 21:59 | 44.24937 | 13.59404 | 39001 ft | 490 kts | 112° |
| 2026-05-05 22:00 | 44.22408 | 13.68215 | 39004 ft | 490 kts | 108° |
| 2026-05-05 22:00 | 44.20558 | 13.77362 | 38998 ft | 490 kts | 105° |
| 2026-05-05 22:01 | 44.18847 | 13.86541 | 39001 ft | 490 kts | 104° |
| 2026-05-05 22:01 | 44.17156 | 13.95705 | 38998 ft | 490 kts | 104° |
| 2026-05-05 22:02 | 44.15444 | 14.04891 | 38998 ft | 490 kts | 104° |
| 2026-05-05 22:02 | 44.13706 | 14.14125 | 39000 ft | 490 kts | 105° |
| 2026-05-05 22:03 | 44.11981 | 14.23238 | 38999 ft | 490 kts | 105° |
| 2026-05-05 22:03 | 44.10235 | 14.32410 | 38998 ft | 490 kts | 105° |
| 2026-05-05 22:04 | 44.08480 | 14.41593 | 39000 ft | 490 kts | 105° |
| 2026-05-05 22:04 | 44.06724 | 14.50738 | 38999 ft | 490 kts | 105° |
| 2026-05-05 22:05 | 44.04971 | 14.59825 | 38999 ft | 490 kts | 105° |
| 2026-05-05 22:05 | 44.03185 | 14.69041 | 38997 ft | 490 kts | 105° |
| 2026-05-05 22:06 | 44.01420 | 14.78101 | 39006 ft | 490 kts | 105° |
| 2026-05-05 22:06 | 43.99628 | 14.87261 | 38999 ft | 490 kts | 105° |
| 2026-05-05 22:07 | 43.97835 | 14.96383 | 39001 ft | 490 kts | 105° |
| 2026-05-05 22:07 | 43.96034 | 15.05499 | 38997 ft | 490 kts | 105° |
| 2026-05-05 22:08 | 43.94222 | 15.14634 | 39005 ft | 490 kts | 105° |
| 2026-05-05 22:08 | 43.92238 | 15.23617 | 39003 ft | 490 kts | 110° |
| 2026-05-05 22:09 | 43.89778 | 15.32442 | 38998 ft | 490 kts | 111° |
| 2026-05-05 22:09 | 43.87295 | 15.41221 | 39001 ft | 490 kts | 111° |
| 2026-05-05 22:10 | 43.84869 | 15.50064 | 39000 ft | 490 kts | 110° |
| 2026-05-05 22:10 | 43.82482 | 15.58891 | 39003 ft | 490 kts | 110° |
| 2026-05-05 22:11 | 43.80091 | 15.67727 | 39003 ft | 490 kts | 110° |
| 2026-05-05 22:11 | 43.77702 | 15.76511 | 39003 ft | 490 kts | 110° |
| 2026-05-05 22:12 | 43.75277 | 15.85389 | 38998 ft | 490 kts | 111° |
| 2026-05-05 22:12 | 43.72875 | 15.94148 | 39001 ft | 490 kts | 111° |
| 2026-05-05 22:13 | 43.70446 | 16.02970 | 39002 ft | 491 kts | 111° |
| 2026-05-05 22:13 | 43.68006 | 16.11803 | 38998 ft | 491 kts | 111° |
| 2026-05-05 22:14 | 43.65562 | 16.20621 | 39005 ft | 491 kts | 111° |
| 2026-05-05 22:14 | 43.63124 | 16.29384 | 38998 ft | 492 kts | 111° |
| 2026-05-05 22:15 | 43.60662 | 16.38202 | 38998 ft | 493 kts | 111° |
| 2026-05-05 22:15 | 43.58188 | 16.47030 | 39001 ft | 493 kts | 111° |
| 2026-05-05 22:16 | 43.55707 | 16.55852 | 39002 ft | 493 kts | 111° |
| 2026-05-05 22:16 | 43.53215 | 16.64683 | 39000 ft | 496 kts | 111° |
| 2026-05-05 22:17 | 43.50709 | 16.73534 | 38998 ft | 495 kts | 111° |
| 2026-05-05 22:17 | 43.48205 | 16.82344 | 38999 ft | 493 kts | 111° |
| 2026-05-05 22:18 | 43.45704 | 16.91111 | 38999 ft | 492 kts | 111° |
| 2026-05-05 22:18 | 43.43196 | 16.99874 | 38998 ft | 492 kts | 111° |
| 2026-05-05 22:19 | 43.40678 | 17.08642 | 38998 ft | 494 kts | 111° |
| 2026-05-05 22:19 | 43.38160 | 17.17379 | 38998 ft | 495 kts | 111° |
| 2026-05-05 22:20 | 43.35634 | 17.26175 | 38999 ft | 493 kts | 110° |
| 2026-05-05 22:20 | 43.33618 | 17.35172 | 38998 ft | 492 kts | 106° |
| 2026-05-05 22:21 | 43.31733 | 17.44213 | 39001 ft | 492 kts | 106° |
| 2026-05-05 22:21 | 43.29862 | 17.53266 | 39000 ft | 492 kts | 106° |
| 2026-05-05 22:22 | 43.27979 | 17.62313 | 38998 ft | 492 kts | 106° |
| 2026-05-05 22:22 | 43.26096 | 17.71285 | 39001 ft | 492 kts | 106° |
| 2026-05-05 22:23 | 43.24187 | 17.80328 | 38997 ft | 492 kts | 106° |
| 2026-05-05 22:23 | 43.22280 | 17.89330 | 38998 ft | 491 kts | 106° |
| 2026-05-05 22:24 | 43.20366 | 17.98323 | 39001 ft | 493 kts | 106° |
| 2026-05-05 22:24 | 43.18433 | 18.07365 | 38997 ft | 496 kts | 106° |
| 2026-05-05 22:25 | 43.16486 | 18.16436 | 38997 ft | 497 kts | 106° |
| 2026-05-05 22:25 | 43.14529 | 18.25515 | 38998 ft | 496 kts | 107° |
| 2026-05-05 22:26 | 43.12565 | 18.34590 | 39002 ft | 498 kts | 107° |
| 2026-05-05 22:26 | 43.10584 | 18.43700 | 38997 ft | 499 kts | 107° |
| 2026-05-05 22:27 | 43.08609 | 18.52743 | 38999 ft | 499 kts | 107° |
| 2026-05-05 22:27 | 43.06621 | 18.61809 | 38999 ft | 497 kts | 107° |
| 2026-05-05 22:28 | 43.04627 | 18.70862 | 39007 ft | 497 kts | 107° |
| 2026-05-05 22:28 | 43.02621 | 18.79932 | 39004 ft | 499 kts | 107° |
| 2026-05-05 22:29 | 43.00601 | 18.89030 | 39001 ft | 500 kts | 107° |
| 2026-05-05 22:29 | 42.98590 | 18.98049 | 39008 ft | 498 kts | 107° |
| 2026-05-05 22:30 | 42.96566 | 19.07082 | 39002 ft | 497 kts | 107° |
| 2026-05-05 22:30 | 42.94536 | 19.16109 | 38997 ft | 497 kts | 107° |
| 2026-05-05 22:31 | 42.92501 | 19.25128 | 38995 ft | 494 kts | 107° |
| 2026-05-05 22:31 | 42.90511 | 19.33902 | 38997 ft | 496 kts | 107° |
| 2026-05-05 22:32 | 42.88448 | 19.42962 | 38996 ft | 501 kts | 107° |
| 2026-05-05 22:32 | 42.86369 | 19.52052 | 39008 ft | 501 kts | 107° |
| 2026-05-05 22:33 | 42.84296 | 19.61082 | 39002 ft | 499 kts | 107° |
| 2026-05-05 22:33 | 42.82211 | 19.70131 | 38997 ft | 501 kts | 107° |
| 2026-05-05 22:34 | 42.80114 | 19.79190 | 38997 ft | 501 kts | 108° |
| 2026-05-05 22:34 | 42.78017 | 19.88214 | 39002 ft | 498 kts | 108° |
| 2026-05-05 22:35 | 42.75920 | 19.97121 | 38995 ft | 498 kts | 109° |
| 2026-05-05 22:35 | 42.72703 | 20.05447 | 39000 ft | 500 kts | 127° |
| 2026-05-05 22:36 | 42.68394 | 20.12862 | 38997 ft | 500 kts | 129° |
| 2026-05-05 22:36 | 42.63935 | 20.20137 | 39000 ft | 502 kts | 130° |
| 2026-05-05 22:37 | 42.59452 | 20.27437 | 39001 ft | 503 kts | 130° |
| 2026-05-05 22:37 | 42.55010 | 20.34703 | 39002 ft | 496 kts | 130° |
| 2026-05-05 22:38 | 42.50620 | 20.41888 | 39001 ft | 493 kts | 130° |
| 2026-05-05 22:38 | 42.46249 | 20.49026 | 39001 ft | 493 kts | 130° |
| 2026-05-05 22:39 | 42.41867 | 20.56163 | 39003 ft | 492 kts | 130° |
| 2026-05-05 22:39 | 42.37485 | 20.63282 | 38999 ft | 492 kts | 130° |
| 2026-05-05 22:40 | 42.33094 | 20.70398 | 39001 ft | 492 kts | 130° |
| 2026-05-05 22:40 | 42.28732 | 20.77451 | 38999 ft | 492 kts | 130° |
| 2026-05-05 22:41 | 42.24308 | 20.84587 | 38998 ft | 493 kts | 130° |
| 2026-05-05 22:41 | 42.19902 | 20.91677 | 38997 ft | 499 kts | 130° |
| 2026-05-05 22:42 | 42.15422 | 20.98868 | 38997 ft | 501 kts | 130° |
| 2026-05-05 22:42 | 42.11065 | 21.06250 | 39002 ft | 504 kts | 122° |
| 2026-05-05 22:43 | 42.07406 | 21.14207 | 39002 ft | 495 kts | 121° |
| 2026-05-05 22:43 | 42.03919 | 21.22153 | 39005 ft | 494 kts | 120° |
| 2026-05-05 22:44 | 42.00433 | 21.30117 | 39004 ft | 494 kts | 121° |
| 2026-05-05 22:44 | 41.97517 | 21.36729 | 39001 ft | 492 kts | 121° |
| 2026-05-05 22:45 | 41.94013 | 21.44637 | 39001 ft | 495 kts | 121° |
| 2026-05-05 22:45 | 41.90491 | 21.52557 | 38999 ft | 493 kts | 121° |
| 2026-05-05 22:46 | 41.86975 | 21.60443 | 39001 ft | 492 kts | 121° |
| 2026-05-05 22:46 | 41.83470 | 21.68286 | 39002 ft | 492 kts | 121° |
| 2026-05-05 22:47 | 41.79946 | 21.76151 | 38999 ft | 493 kts | 121° |
| 2026-05-05 22:47 | 41.76410 | 21.84022 | 39000 ft | 492 kts | 121° |
| 2026-05-05 22:48 | 41.72877 | 21.91865 | 38999 ft | 492 kts | 121° |
| 2026-05-05 22:48 | 41.69327 | 21.99727 | 38999 ft | 492 kts | 121° |
| 2026-05-05 22:49 | 41.65784 | 22.07553 | 38999 ft | 492 kts | 121° |
| 2026-05-05 22:49 | 41.62229 | 22.15384 | 39001 ft | 493 kts | 121° |
| 2026-05-05 22:50 | 41.58667 | 22.23211 | 38998 ft | 494 kts | 121° |
| 2026-05-05 22:50 | 41.55089 | 22.31052 | 39002 ft | 494 kts | 121° |
| 2026-05-05 22:51 | 41.51507 | 22.38882 | 38999 ft | 493 kts | 121° |
| 2026-05-05 22:51 | 41.47947 | 22.46642 | 39002 ft | 493 kts | 121° |
| 2026-05-05 22:52 | 41.44358 | 22.54446 | 39000 ft | 494 kts | 121° |
| 2026-05-05 22:52 | 41.40770 | 22.62230 | 38999 ft | 494 kts | 122° |
| 2026-05-05 22:53 | 41.37169 | 22.70020 | 38999 ft | 493 kts | 122° |
| 2026-05-05 22:53 | 41.33624 | 22.77870 | 38999 ft | 496 kts | 117° |
| 2026-05-05 22:54 | 41.31075 | 22.86426 | 38999 ft | 498 kts | 109° |
| 2026-05-05 22:54 | 41.28867 | 22.95117 | 38999 ft | 494 kts | 108° |
| 2026-05-05 22:55 | 41.26703 | 23.03761 | 39003 ft | 491 kts | 108° |
| 2026-05-05 22:55 | 41.24527 | 23.12360 | 39002 ft | 490 kts | 109° |
| 2026-05-05 22:56 | 41.22335 | 23.20940 | 39003 ft | 490 kts | 109° |
| 2026-05-05 22:56 | 41.20137 | 23.29502 | 39000 ft | 490 kts | 109° |
| 2026-05-05 22:57 | 41.17932 | 23.38066 | 39001 ft | 490 kts | 109° |
| 2026-05-05 22:57 | 41.15718 | 23.46633 | 38997 ft | 491 kts | 109° |
| 2026-05-05 22:58 | 41.13499 | 23.55191 | 38997 ft | 492 kts | 109° |
| 2026-05-05 22:58 | 41.11266 | 23.63773 | 39001 ft | 492 kts | 109° |
| 2026-05-05 22:59 | 41.09025 | 23.72355 | 39002 ft | 492 kts | 109° |
| 2026-05-05 22:59 | 41.06774 | 23.80944 | 39003 ft | 492 kts | 109° |
| 2026-05-05 23:00 | 41.03409 | 23.93729 | 39001 ft | 492 kts | 109° |
| 2026-05-05 23:00 | 41.01148 | 24.02281 | 38998 ft | 491 kts | 109° |
| 2026-05-05 23:01 | 40.98888 | 24.10803 | 39006 ft | 490 kts | 109° |
| 2026-05-05 23:01 | 40.96622 | 24.19313 | 39005 ft | 490 kts | 109° |
| 2026-05-05 23:02 | 40.94355 | 24.27803 | 39003 ft | 490 kts | 109° |
| 2026-05-05 23:02 | 40.92074 | 24.36312 | 38997 ft | 490 kts | 109° |
| 2026-05-05 23:03 | 40.89789 | 24.44808 | 38997 ft | 490 kts | 109° |
| 2026-05-05 23:03 | 40.87500 | 24.53290 | 39001 ft | 490 kts | 110° |
| 2026-05-05 23:04 | 40.85206 | 24.61761 | 38998 ft | 491 kts | 110° |
| 2026-05-05 23:04 | 40.82893 | 24.70274 | 38999 ft | 498 kts | 110° |
| 2026-05-05 23:05 | 40.80539 | 24.78910 | 39004 ft | 502 kts | 110° |
| 2026-05-05 23:05 | 40.78151 | 24.87639 | 38997 ft | 504 kts | 110° |
| 2026-05-05 23:06 | 40.75951 | 24.95654 | 38997 ft | 504 kts | 110° |
| 2026-05-05 23:06 | 40.75245 | 24.98219 | 39000 ft | 504 kts | 110° |
| 2026-05-05 23:07 | 40.74193 | 25.02040 | 39008 ft | 0 kts | 110° |
| 2026-05-05 23:07 | 40.57723 | 25.65237 | 39128 ft | 496 kts | 112° |
| 2026-05-05 23:07 | 39.91498 | 27.41000 | 39026 ft | 29091 kts | 116° |
| 2026-05-05 23:08 | 39.69228 | 27.99421 | 39124 ft | 493 kts | 121° |
| 2026-05-05 23:08 | 39.57793 | 28.14005 | 39022 ft | 29171 kts | 137° |
| 2026-05-05 23:08 | 39.36687 | 28.37042 | 39339 ft | 487 kts | 150° |
| 2026-05-05 23:08 | 39.33606 | 28.38856 | 39396 ft | 488 kts | 162° |
| 2026-05-05 23:09 | 39.30381 | 28.40350 | 39169 ft | 496 kts | 156° |
| 2026-05-05 23:09 | 39.21389 | 28.47489 | 39145 ft | 498 kts | 123° |
| 2026-05-05 23:09 | 39.19483 | 28.51191 | 39264 ft | 498 kts | 127° |
| 2026-05-05 23:09 | 39.17256 | 28.54667 | 39067 ft | 505 kts | 132° |
| 2026-05-05 23:10 | 38.70645 | 29.20719 | 38991 ft | 28048 kts | 132° |
| 2026-05-05 23:10 | 37.90755 | 30.32897 | 39089 ft | 505 kts | 132° |
| 2026-05-05 23:10 | 37.54914 | 31.33561 | 39237 ft | 503 kts | 115° |
| 2026-05-05 23:10 | 37.53499 | 31.37554 | 39201 ft | 506 kts | 116° |
| 2026-05-05 23:11 | 36.94610 | 32.51067 | 39122 ft | 26091 kts | 123° |
| 2026-05-05 23:11 | 36.05272 | 34.08403 | 39163 ft | 29783 kts | 124° |
| 2026-05-05 23:11 | 35.82775 | 34.34344 | 39323 ft | 504 kts | 124° |
| 2026-05-05 23:12 | 35.80708 | 34.37822 | 39182 ft | 504 kts | 128° |
| 2026-05-05 23:12 | 35.15908 | 35.76292 | 39235 ft | 502 kts | 128° |
| 2026-05-05 23:12 | 34.60099 | 36.64203 | 39373 ft | 500 kts | 127° |
| 2026-05-05 23:12 | 34.58017 | 36.67591 | 39096 ft | 508 kts | 126° |
| 2026-05-05 23:13 | 33.82417 | 37.42172 | 38835 ft | 29614 kts | 152° |
| 2026-05-05 23:13 | 32.71140 | 38.18838 | 38857 ft | 27857 kts | 152° |
| 2026-05-05 23:13 | 32.45941 | 38.37830 | 39476 ft | 484 kts | 152° |
| 2026-05-05 23:13 | 32.43027 | 38.39741 | 39748 ft | 480 kts | 151° |
| 2026-05-05 23:14 | 32.40094 | 38.41635 | 39934 ft | 479 kts | 152° |
| 2026-05-05 23:14 | 32.37110 | 38.43428 | 39927 ft | 482 kts | 158° |
| 2026-05-05 23:14 | 32.33944 | 38.44858 | 39668 ft | 491 kts | 161° |
| 2026-05-05 23:14 | 32.30661 | 38.46174 | 39394 ft | 500 kts | 162° |
| 2026-05-05 23:15 | 32.27383 | 38.47409 | 39140 ft | 508 kts | 163° |
| 2026-05-05 23:15 | 32.23984 | 38.48666 | 38988 ft | 510 kts | 163° |
| 2026-05-05 23:15 | 32.17178 | 38.51207 | 38999 ft | 510 kts | 162° |
| 2026-05-05 23:16 | 32.10468 | 38.53757 | 38998 ft | 509 kts | 162° |
| 2026-05-05 23:16 | 32.03728 | 38.56338 | 39004 ft | 509 kts | 162° |
| 2026-05-05 23:17 | 31.96995 | 38.58914 | 39004 ft | 509 kts | 162° |
| 2026-05-05 23:17 | 31.90310 | 38.61659 | 38997 ft | 509 kts | 155° |
| 2026-05-05 23:18 | 31.83933 | 38.65207 | 38999 ft | 509 kts | 154° |
| 2026-05-05 23:18 | 31.77581 | 38.68898 | 38997 ft | 509 kts | 154° |
| 2026-05-05 23:19 | 31.71225 | 38.72612 | 38999 ft | 509 kts | 153° |
| 2026-05-05 23:19 | 31.65099 | 38.76787 | 39000 ft | 509 kts | 149° |
| 2026-05-05 23:20 | 31.59039 | 38.81127 | 39005 ft | 509 kts | 148° |
| 2026-05-05 23:20 | 31.53043 | 38.85444 | 38999 ft | 509 kts | 148° |
| 2026-05-05 23:21 | 31.47004 | 38.89779 | 39000 ft | 509 kts | 149° |
| 2026-05-05 23:21 | 31.40954 | 38.94107 | 38997 ft | 509 kts | 149° |
| 2026-05-05 23:22 | 31.34899 | 38.98430 | 39000 ft | 509 kts | 149° |
| 2026-05-05 23:22 | 31.28843 | 39.02747 | 38997 ft | 509 kts | 149° |
| 2026-05-05 23:23 | 31.22786 | 39.07060 | 39002 ft | 509 kts | 149° |
| 2026-05-05 23:23 | 31.16773 | 39.11334 | 39004 ft | 509 kts | 149° |
| 2026-05-05 23:24 | 31.10716 | 39.15632 | 38999 ft | 509 kts | 149° |
| 2026-05-05 23:24 | 31.04657 | 39.19927 | 38997 ft | 509 kts | 149° |
| 2026-05-05 23:25 | 30.98600 | 39.24215 | 38997 ft | 510 kts | 149° |
| 2026-05-05 23:25 | 30.92530 | 39.28504 | 39005 ft | 510 kts | 149° |
| 2026-05-05 23:26 | 30.86469 | 39.32779 | 38999 ft | 510 kts | 149° |
| 2026-05-05 23:26 | 30.80396 | 39.37058 | 38997 ft | 510 kts | 149° |
| 2026-05-05 23:27 | 30.74323 | 39.41330 | 38997 ft | 510 kts | 149° |
| 2026-05-05 23:27 | 30.68250 | 39.45596 | 38997 ft | 509 kts | 149° |
| 2026-05-05 23:28 | 30.62187 | 39.49849 | 38997 ft | 509 kts | 149° |
| 2026-05-05 23:28 | 30.56163 | 39.54068 | 39000 ft | 509 kts | 149° |
| 2026-05-05 23:29 | 30.50099 | 39.58308 | 39000 ft | 509 kts | 149° |
| 2026-05-05 23:29 | 30.44057 | 39.62613 | 38998 ft | 509 kts | 145° |
| 2026-05-05 23:30 | 30.39679 | 39.67138 | 38999 ft | 509 kts | 130° |
| 2026-05-05 23:30 | 29.73041 | 40.59225 | 39014 ft | 27943 kts | 128° |
| 2026-05-05 23:30 | 29.49661 | 41.13445 | 39160 ft | 505 kts | 128° |
| 2026-05-05 23:31 | 29.47336 | 41.17967 | 39299 ft | 497 kts | 115° |
| 2026-05-05 23:31 | 29.46336 | 41.20394 | 39316 ft | 498 kts | 115° |
| 2026-05-05 23:31 | 29.44792 | 41.23923 | 39125 ft | 505 kts | 121° |
| 2026-05-05 23:31 | 29.42957 | 41.27395 | 38991 ft | 509 kts | 122° |
| 2026-05-05 23:32 | 29.39111 | 41.34208 | 38995 ft | 510 kts | 123° |
| 2026-05-05 23:32 | 29.35250 | 41.41037 | 38997 ft | 509 kts | 123° |
| 2026-05-05 23:33 | 29.31435 | 41.47885 | 39002 ft | 509 kts | 122° |
| 2026-05-05 23:33 | 29.27643 | 41.54728 | 39000 ft | 509 kts | 122° |
| 2026-05-05 23:34 | 29.23867 | 41.61534 | 38999 ft | 509 kts | 122° |
| 2026-05-05 23:34 | 29.20061 | 41.68381 | 38998 ft | 509 kts | 122° |
| 2026-05-05 23:35 | 29.16259 | 41.75205 | 38999 ft | 509 kts | 122° |
| 2026-05-05 23:35 | 29.12448 | 41.82034 | 38999 ft | 509 kts | 122° |
| 2026-05-05 23:36 | 29.08636 | 41.88853 | 39001 ft | 509 kts | 123° |
| 2026-05-05 23:36 | 29.04826 | 41.95663 | 38999 ft | 509 kts | 122° |
| 2026-05-05 23:37 | 29.01028 | 42.02505 | 39002 ft | 509 kts | 122° |
| 2026-05-05 23:37 | 28.97241 | 42.09328 | 38999 ft | 509 kts | 122° |
| 2026-05-05 23:38 | 28.93466 | 42.16111 | 38999 ft | 509 kts | 122° |
| 2026-05-05 23:38 | 28.89642 | 42.22967 | 39001 ft | 509 kts | 122° |
| 2026-05-05 23:39 | 28.85846 | 42.29762 | 39000 ft | 509 kts | 122° |
| 2026-05-05 23:39 | 28.82063 | 42.36523 | 38999 ft | 509 kts | 122° |
| 2026-05-05 23:40 | 28.78246 | 42.43333 | 38999 ft | 509 kts | 123° |
| 2026-05-05 23:40 | 28.74440 | 42.50113 | 38999 ft | 509 kts | 123° |
| 2026-05-05 23:41 | 28.70619 | 42.56909 | 38999 ft | 509 kts | 123° |
| 2026-05-05 23:41 | 28.66798 | 42.63692 | 39000 ft | 509 kts | 123° |
| 2026-05-05 23:42 | 28.62577 | 42.70155 | 39000 ft | 508 kts | 131° |
| 2026-05-05 23:42 | 28.57829 | 42.76106 | 39000 ft | 508 kts | 133° |
| 2026-05-05 23:43 | 28.52996 | 42.82001 | 38998 ft | 508 kts | 133° |
| 2026-05-05 23:43 | 28.48205 | 42.87842 | 39003 ft | 509 kts | 133° |
| 2026-05-05 23:44 | 28.43381 | 42.93737 | 38998 ft | 509 kts | 133° |
| 2026-05-05 23:44 | 28.38555 | 42.99636 | 38998 ft | 509 kts | 133° |
| 2026-05-05 23:45 | 28.33740 | 43.05514 | 38998 ft | 509 kts | 133° |
| 2026-05-05 23:45 | 28.28922 | 43.11387 | 38998 ft | 509 kts | 133° |
| 2026-05-05 23:46 | 28.24120 | 43.17231 | 39004 ft | 508 kts | 133° |
| 2026-05-05 23:46 | 28.19300 | 43.23089 | 39009 ft | 508 kts | 133° |
| 2026-05-05 23:47 | 28.14475 | 43.28945 | 38998 ft | 508 kts | 133° |
| 2026-05-05 23:47 | 28.09647 | 43.34795 | 39004 ft | 508 kts | 133° |
| 2026-05-05 23:48 | 28.04818 | 43.40639 | 39005 ft | 508 kts | 133° |
| 2026-05-05 23:48 | 27.99975 | 43.46491 | 38999 ft | 508 kts | 133° |
| 2026-05-05 23:49 | 27.95142 | 43.52324 | 38999 ft | 508 kts | 133° |
| 2026-05-05 23:49 | 27.90298 | 43.58160 | 39002 ft | 508 kts | 133° |
| 2026-05-05 23:50 | 27.85452 | 43.63992 | 38998 ft | 508 kts | 133° |
| 2026-05-05 23:50 | 27.80532 | 43.69705 | 39002 ft | 508 kts | 136° |
| 2026-05-05 23:51 | 27.75425 | 43.75156 | 38998 ft | 508 kts | 137° |
| 2026-05-05 23:51 | 27.70285 | 43.80634 | 39003 ft | 508 kts | 136° |
| 2026-05-05 23:52 | 27.65179 | 43.86145 | 38998 ft | 508 kts | 136° |
| 2026-05-05 23:52 | 27.60077 | 43.91679 | 38998 ft | 508 kts | 136° |
| 2026-05-05 23:53 | 27.54987 | 43.97196 | 38998 ft | 508 kts | 136° |
| 2026-05-05 23:53 | 27.49889 | 44.02712 | 39001 ft | 508 kts | 136° |
| 2026-05-05 23:54 | 27.44821 | 44.08185 | 38998 ft | 508 kts | 136° |
| 2026-05-05 23:54 | 27.39717 | 44.13690 | 38998 ft | 508 kts | 136° |
| 2026-05-05 23:55 | 27.34611 | 44.19189 | 38998 ft | 508 kts | 136° |
| 2026-05-05 23:55 | 27.29514 | 44.24672 | 39001 ft | 508 kts | 136° |
| 2026-05-05 23:56 | 27.24404 | 44.30161 | 38998 ft | 508 kts | 136° |
| 2026-05-05 23:56 | 27.19296 | 44.35641 | 38998 ft | 507 kts | 136° |
| 2026-05-05 23:57 | 27.14185 | 44.41120 | 38998 ft | 507 kts | 136° |
| 2026-05-05 23:57 | 27.09085 | 44.46588 | 38999 ft | 507 kts | 136° |
| 2026-05-05 23:58 | 27.03977 | 44.52060 | 38998 ft | 507 kts | 136° |
| 2026-05-05 23:58 | 26.98860 | 44.57532 | 38998 ft | 507 kts | 136° |
| 2026-05-05 23:59 | 26.93755 | 44.62989 | 39003 ft | 507 kts | 136° |
| 2026-05-05 23:59 | 26.88660 | 44.68407 | 38998 ft | 508 kts | 136° |
| 2026-05-06 00:00 | 26.83533 | 44.73854 | 38998 ft | 508 kts | 136° |
| 2026-05-06 00:00 | 26.78409 | 44.79295 | 39000 ft | 508 kts | 136° |
| 2026-05-06 00:01 | 26.73287 | 44.84737 | 38998 ft | 508 kts | 136° |
| 2026-05-06 00:01 | 26.68148 | 44.90167 | 38998 ft | 508 kts | 137° |
| 2026-05-06 00:02 | 26.63002 | 44.95591 | 39000 ft | 508 kts | 137° |
| 2026-05-06 00:02 | 26.57861 | 45.01014 | 38998 ft | 508 kts | 136° |
| 2026-05-06 00:03 | 26.52754 | 45.06403 | 39006 ft | 508 kts | 137° |
| 2026-05-06 00:03 | 26.47601 | 45.11821 | 39003 ft | 508 kts | 137° |
| 2026-05-06 00:04 | 26.42462 | 45.17219 | 39003 ft | 508 kts | 137° |
| 2026-05-06 00:04 | 26.37405 | 45.22528 | 38998 ft | 508 kts | 137° |
| 2026-05-06 00:05 | 26.29673 | 45.30633 | 38998 ft | 508 kts | 137° |
| 2026-05-06 00:06 | 26.24530 | 45.36034 | 38999 ft | 508 kts | 137° |
| 2026-05-06 00:06 | 26.19375 | 45.41447 | 38998 ft | 508 kts | 137° |
| 2026-05-06 00:07 | 26.14233 | 45.46846 | 38998 ft | 508 kts | 137° |
| 2026-05-06 00:07 | 26.09103 | 45.52219 | 39000 ft | 508 kts | 137° |
| 2026-05-06 00:08 | 26.03950 | 45.57605 | 39007 ft | 508 kts | 137° |
| 2026-05-06 00:08 | 25.98793 | 45.62990 | 38998 ft | 508 kts | 137° |
| 2026-05-06 00:09 | 25.93649 | 45.68357 | 39002 ft | 508 kts | 137° |
| 2026-05-06 00:09 | 25.88475 | 45.73749 | 39004 ft | 508 kts | 137° |
| 2026-05-06 00:10 | 25.83328 | 45.79112 | 38998 ft | 508 kts | 137° |
| 2026-05-06 00:10 | 25.78161 | 45.84479 | 39001 ft | 508 kts | 137° |
| 2026-05-06 00:11 | 25.72997 | 45.89833 | 39003 ft | 508 kts | 137° |
| 2026-05-06 00:11 | 25.67840 | 45.95177 | 39001 ft | 508 kts | 137° |
| 2026-05-06 00:12 | 25.62676 | 46.00523 | 39001 ft | 508 kts | 137° |
| 2026-05-06 00:12 | 25.57514 | 46.05871 | 38998 ft | 508 kts | 137° |
| 2026-05-06 00:13 | 25.52344 | 46.11205 | 38998 ft | 508 kts | 137° |
| 2026-05-06 00:13 | 25.47194 | 46.16510 | 38998 ft | 508 kts | 137° |
| 2026-05-06 00:14 | 25.42143 | 46.21711 | 39000 ft | 508 kts | 137° |
| 2026-05-06 00:14 | 25.36975 | 46.27029 | 39001 ft | 508 kts | 137° |
| 2026-05-06 00:15 | 25.31798 | 46.32348 | 39000 ft | 508 kts | 137° |
| 2026-05-06 00:15 | 25.26617 | 46.37666 | 38998 ft | 508 kts | 137° |
| 2026-05-06 00:16 | 25.22313 | 46.42077 | 38998 ft | 508 kts | 137° |
| 2026-05-06 00:16 | 25.17129 | 46.47386 | 38998 ft | 508 kts | 137° |
| 2026-05-06 00:17 | 25.11096 | 46.53555 | 38998 ft | 508 kts | 137° |
| 2026-05-06 00:17 | 25.06745 | 46.58000 | 39000 ft | 508 kts | 137° |
| 2026-05-06 00:18 | 25.01588 | 46.63261 | 38998 ft | 508 kts | 137° |
| 2026-05-06 00:18 | 24.95875 | 46.67781 | 39005 ft | 507 kts | 154° |
| 2026-05-06 00:19 | 24.89446 | 46.71013 | 38997 ft | 507 kts | 157° |
| 2026-05-06 00:19 | 24.82944 | 46.74040 | 38998 ft | 507 kts | 157° |
| 2026-05-06 00:20 | 24.76435 | 46.77055 | 38997 ft | 507 kts | 157° |
| 2026-05-06 00:20 | 24.69943 | 46.80086 | 39000 ft | 507 kts | 157° |
| 2026-05-06 00:21 | 24.63445 | 46.83130 | 38998 ft | 507 kts | 157° |
| 2026-05-06 00:21 | 24.56970 | 46.86162 | 38998 ft | 507 kts | 157° |
| 2026-05-06 00:22 | 24.50476 | 46.89199 | 38996 ft | 507 kts | 157° |
| 2026-05-06 00:22 | 24.44018 | 46.92215 | 39004 ft | 507 kts | 157° |
| 2026-05-06 00:23 | 24.37529 | 46.95241 | 38998 ft | 507 kts | 157° |
| 2026-05-06 00:23 | 24.31033 | 46.98267 | 38997 ft | 506 kts | 157° |
| 2026-05-06 00:24 | 24.24550 | 47.01284 | 38997 ft | 506 kts | 157° |
| 2026-05-06 00:24 | 24.18057 | 47.04306 | 39001 ft | 506 kts | 157° |
| 2026-05-06 00:25 | 24.12051 | 47.08286 | 39000 ft | 506 kts | 139° |
| 2026-05-06 00:25 | 24.07487 | 47.14124 | 38999 ft | 506 kts | 123° |
| 2026-05-06 00:26 | 24.03719 | 47.20623 | 38998 ft | 507 kts | 122° |
| 2026-05-06 00:26 | 24.00026 | 47.27190 | 38998 ft | 507 kts | 122° |
| 2026-05-06 00:27 | 23.96327 | 47.33712 | 38999 ft | 507 kts | 122° |
| 2026-05-06 00:27 | 23.92584 | 47.40251 | 38999 ft | 507 kts | 122° |
| 2026-05-06 00:28 | 23.88833 | 47.46780 | 39001 ft | 507 kts | 122° |
| 2026-05-06 00:28 | 23.85076 | 47.53312 | 39002 ft | 508 kts | 122° |
| 2026-05-06 00:29 | 23.81315 | 47.59844 | 39000 ft | 508 kts | 122° |
| 2026-05-06 00:29 | 23.77557 | 47.66365 | 38999 ft | 508 kts | 122° |
| 2026-05-06 00:30 | 23.73789 | 47.72893 | 39002 ft | 507 kts | 122° |
| 2026-05-06 00:30 | 23.70014 | 47.79425 | 38999 ft | 507 kts | 122° |
| 2026-05-06 00:31 | 23.66273 | 47.85890 | 38999 ft | 507 kts | 122° |
| 2026-05-06 00:31 | 23.62481 | 47.92435 | 39004 ft | 507 kts | 122° |
| 2026-05-06 00:32 | 23.58733 | 47.98894 | 39003 ft | 507 kts | 122° |
| 2026-05-06 00:32 | 23.54961 | 48.05388 | 38999 ft | 507 kts | 122° |
| 2026-05-06 00:33 | 23.51190 | 48.11871 | 38999 ft | 507 kts | 122° |
| 2026-05-06 00:33 | 23.47411 | 48.18359 | 38999 ft | 506 kts | 122° |
| 2026-05-06 00:34 | 23.43641 | 48.24825 | 38999 ft | 506 kts | 122° |
| 2026-05-06 00:34 | 23.40038 | 48.31412 | 39000 ft | 506 kts | 115° |
| 2026-05-06 00:35 | 23.38106 | 48.38754 | 39010 ft | 506 kts | 96° |
| 2026-05-06 00:35 | 23.37652 | 48.46372 | 39000 ft | 506 kts | 92° |
| 2026-05-06 00:36 | 23.37381 | 48.54047 | 38999 ft | 506 kts | 92° |
| 2026-05-06 00:36 | 23.37105 | 48.61643 | 39004 ft | 506 kts | 92° |
| 2026-05-06 00:37 | 23.36798 | 48.69291 | 38998 ft | 506 kts | 92° |
| 2026-05-06 00:37 | 23.36475 | 48.76949 | 39001 ft | 506 kts | 92° |
| 2026-05-06 00:38 | 23.36148 | 48.84601 | 38996 ft | 506 kts | 92° |
| 2026-05-06 00:38 | 23.35818 | 48.92258 | 38996 ft | 506 kts | 92° |
| 2026-05-06 00:39 | 23.35487 | 48.99886 | 39001 ft | 505 kts | 92° |
| 2026-05-06 00:39 | 23.35152 | 49.07509 | 38997 ft | 505 kts | 92° |
| 2026-05-06 00:40 | 23.34814 | 49.15143 | 38998 ft | 505 kts | 92° |
| 2026-05-06 00:40 | 23.34470 | 49.22795 | 38998 ft | 505 kts | 93° |
| 2026-05-06 00:41 | 23.34124 | 49.30419 | 39001 ft | 505 kts | 93° |
| 2026-05-06 00:41 | 23.33774 | 49.38058 | 38999 ft | 505 kts | 93° |
| 2026-05-06 00:42 | 23.33422 | 49.45653 | 38995 ft | 505 kts | 93° |
| 2026-05-06 00:42 | 23.33245 | 49.49434 | 38755 ft | 498 kts | 93° |
| 2026-05-06 00:42 | 23.33069 | 49.53194 | 38252 ft | 495 kts | 93° |
| 2026-05-06 00:42 | 23.32892 | 49.56944 | 37829 ft | 500 kts | 93° |
| 2026-05-06 00:43 | 23.32712 | 49.60741 | 37422 ft | 503 kts | 93° |
| 2026-05-06 00:43 | 23.32531 | 49.64543 | 36993 ft | 504 kts | 93° |
| 2026-05-06 00:43 | 23.32348 | 49.68360 | 36546 ft | 505 kts | 93° |
| 2026-05-06 00:43 | 23.32165 | 49.72169 | 36120 ft | 505 kts | 93° |
| 2026-05-06 00:44 | 23.31980 | 49.75978 | 35692 ft | 506 kts | 93° |
| 2026-05-06 00:44 | 23.31794 | 49.79813 | 35260 ft | 506 kts | 93° |
| 2026-05-06 00:44 | 23.31607 | 49.83643 | 34806 ft | 507 kts | 93° |
| 2026-05-06 00:44 | 23.31418 | 49.87484 | 34383 ft | 508 kts | 93° |
| 2026-05-06 00:45 | 23.31228 | 49.91327 | 33955 ft | 509 kts | 93° |
| 2026-05-06 00:45 | 23.31037 | 49.95189 | 33508 ft | 510 kts | 93° |
| 2026-05-06 00:45 | 23.30847 | 49.99002 | 33080 ft | 511 kts | 93° |
| 2026-05-06 00:45 | 23.30650 | 50.02928 | 32642 ft | 512 kts | 93° |
| 2026-05-06 00:46 | 23.30457 | 50.06754 | 32214 ft | 513 kts | 93° |
| 2026-05-06 00:46 | 23.30261 | 50.10636 | 31771 ft | 514 kts | 93° |
| 2026-05-06 00:46 | 23.30063 | 50.14530 | 31338 ft | 515 kts | 93° |
| 2026-05-06 00:46 | 23.29864 | 50.18425 | 30907 ft | 516 kts | 93° |
| 2026-05-06 00:47 | 23.29664 | 50.22327 | 30478 ft | 517 kts | 93° |
| 2026-05-06 00:47 | 23.29462 | 50.26234 | 30042 ft | 518 kts | 93° |
| 2026-05-06 00:47 | 23.29259 | 50.30153 | 29561 ft | 517 kts | 93° |
| 2026-05-06 00:47 | 23.29057 | 50.34037 | 29129 ft | 514 kts | 93° |
| 2026-05-06 00:48 | 23.28854 | 50.37909 | 28679 ft | 511 kts | 93° |
| 2026-05-06 00:48 | 23.28652 | 50.41755 | 28231 ft | 507 kts | 93° |
| 2026-05-06 00:48 | 23.28450 | 50.45575 | 27780 ft | 503 kts | 93° |
| 2026-05-06 00:48 | 23.28251 | 50.49316 | 27342 ft | 500 kts | 93° |
| 2026-05-06 00:49 | 23.28051 | 50.53075 | 26897 ft | 496 kts | 93° |
| 2026-05-06 00:49 | 23.27851 | 50.56809 | 26447 ft | 493 kts | 93° |
| 2026-05-06 00:49 | 23.27651 | 50.60521 | 25999 ft | 490 kts | 93° |
| 2026-05-06 00:49 | 23.27452 | 50.64222 | 25562 ft | 486 kts | 93° |
| 2026-05-06 00:50 | 23.27253 | 50.67876 | 25101 ft | 483 kts | 93° |
| 2026-05-06 00:50 | 23.27055 | 50.71520 | 24655 ft | 480 kts | 93° |
| 2026-05-06 00:50 | 23.26857 | 50.75131 | 24202 ft | 477 kts | 93° |
| 2026-05-06 00:50 | 23.26660 | 50.78710 | 23762 ft | 474 kts | 93° |
| 2026-05-06 00:51 | 23.26463 | 50.82287 | 23311 ft | 470 kts | 93° |
| 2026-05-06 00:51 | 23.26267 | 50.85830 | 22862 ft | 467 kts | 93° |
| 2026-05-06 00:51 | 23.26092 | 50.89340 | 22423 ft | 464 kts | 91° |
| 2026-05-06 00:51 | 23.26278 | 50.92834 | 21963 ft | 461 kts | 81° |
| 2026-05-06 00:52 | 23.27079 | 50.96195 | 21515 ft | 458 kts | 69° |
| 2026-05-06 00:52 | 23.28539 | 50.99234 | 21061 ft | 453 kts | 55° |
| 2026-05-06 00:52 | 23.30571 | 51.01748 | 20626 ft | 444 kts | 41° |
| 2026-05-06 00:52 | 23.33110 | 51.03674 | 20187 ft | 436 kts | 27° |
| 2026-05-06 00:53 | 23.35870 | 51.04862 | 19743 ft | 432 kts | 15° |
| 2026-05-06 00:53 | 23.38793 | 51.05582 | 19302 ft | 430 kts | 10° |
| 2026-05-06 00:53 | 23.41589 | 51.06109 | 18874 ft | 428 kts | 9° |
| 2026-05-06 00:53 | 23.44510 | 51.06599 | 18430 ft | 425 kts | 8° |
| 2026-05-06 00:54 | 23.47435 | 51.07086 | 17979 ft | 422 kts | 8° |
| 2026-05-06 00:54 | 23.50330 | 51.07587 | 17536 ft | 420 kts | 9° |
| 2026-05-06 00:54 | 23.53201 | 51.08107 | 17090 ft | 417 kts | 9° |
| 2026-05-06 00:54 | 23.56044 | 51.08640 | 16638 ft | 414 kts | 9° |
| 2026-05-06 00:55 | 23.58885 | 51.09183 | 16182 ft | 412 kts | 9° |
| 2026-05-06 00:55 | 23.61688 | 51.09724 | 15741 ft | 409 kts | 9° |
| 2026-05-06 00:55 | 23.64481 | 51.10266 | 15294 ft | 406 kts | 9° |
| 2026-05-06 00:55 | 23.67263 | 51.10805 | 14839 ft | 403 kts | 9° |
| 2026-05-06 00:56 | 23.70014 | 51.11337 | 14394 ft | 401 kts | 9° |
| 2026-05-06 00:56 | 23.72749 | 51.11866 | 13951 ft | 398 kts | 9° |
| 2026-05-06 00:56 | 23.75472 | 51.12392 | 13500 ft | 396 kts | 9° |
| 2026-05-06 00:56 | 23.78144 | 51.12908 | 12970 ft | 394 kts | 9° |
| 2026-05-06 00:57 | 23.80848 | 51.13430 | 12224 ft | 393 kts | 9° |
| 2026-05-06 00:57 | 23.83508 | 51.13944 | 11856 ft | 383 kts | 9° |
| 2026-05-06 00:57 | 23.86127 | 51.14451 | 11649 ft | 382 kts | 9° |
| 2026-05-06 00:57 | 23.88744 | 51.14957 | 11445 ft | 383 kts | 9° |
| 2026-05-06 00:58 | 23.91372 | 51.15466 | 11244 ft | 382 kts | 9° |
| 2026-05-06 00:58 | 23.93991 | 51.15973 | 11043 ft | 381 kts | 9° |
| 2026-05-06 00:58 | 23.96598 | 51.16478 | 10854 ft | 380 kts | 9° |
| 2026-05-06 00:58 | 23.99198 | 51.16981 | 10640 ft | 379 kts | 9° |
| 2026-05-06 00:59 | 24.01787 | 51.17483 | 10449 ft | 378 kts | 9° |
| 2026-05-06 00:59 | 24.04371 | 51.17984 | 10244 ft | 377 kts | 9° |
| 2026-05-06 00:59 | 24.06922 | 51.18480 | 10047 ft | 366 kts | 9° |
| 2026-05-06 00:59 | 24.09362 | 51.18954 | 9909 ft | 347 kts | 9° |
| 2026-05-06 01:00 | 24.11695 | 51.19407 | 9775 ft | 330 kts | 9° |
| 2026-05-06 01:00 | 24.13904 | 51.19837 | 9649 ft | 315 kts | 9° |
| 2026-05-06 01:00 | 24.16007 | 51.20246 | 9514 ft | 300 kts | 9° |
| 2026-05-06 01:00 | 24.18022 | 51.20637 | 9417 ft | 288 kts | 9° |
| 2026-05-06 01:01 | 24.19970 | 51.21016 | 9333 ft | 285 kts | 9° |
| 2026-05-06 01:01 | 24.21925 | 51.21396 | 9231 ft | 286 kts | 9° |
| 2026-05-06 01:01 | 24.23887 | 51.21777 | 9134 ft | 286 kts | 9° |
| 2026-05-06 01:01 | 24.25827 | 51.22154 | 9044 ft | 286 kts | 9° |
| 2026-05-06 01:02 | 24.27787 | 51.22535 | 8936 ft | 285 kts | 9° |
| 2026-05-06 01:02 | 24.29109 | 51.22793 | 8865 ft | 285 kts | 9° |
| 2026-05-06 01:02 | 24.31032 | 51.23288 | 8774 ft | 285 kts | 16° |
| 2026-05-06 01:02 | 24.32870 | 51.24045 | 8670 ft | 284 kts | 24° |
| 2026-05-06 01:03 | 24.34597 | 51.25093 | 8553 ft | 284 kts | 33° |
| 2026-05-06 01:03 | 24.36189 | 51.26375 | 8462 ft | 284 kts | 39° |
| 2026-05-06 01:03 | 24.37681 | 51.27799 | 8372 ft | 284 kts | 42° |
| 2026-05-06 01:03 | 24.39110 | 51.29286 | 8276 ft | 283 kts | 44° |
| 2026-05-06 01:04 | 24.40519 | 51.30797 | 8168 ft | 283 kts | 44° |
| 2026-05-06 01:04 | 24.41930 | 51.32313 | 8077 ft | 283 kts | 44° |
| 2026-05-06 01:04 | 24.43340 | 51.33812 | 7980 ft | 282 kts | 44° |
| 2026-05-06 01:04 | 24.44759 | 51.35302 | 7873 ft | 282 kts | 43° |
| 2026-05-06 01:05 | 24.46171 | 51.36772 | 7762 ft | 281 kts | 43° |
| 2026-05-06 01:05 | 24.47591 | 51.38242 | 7671 ft | 281 kts | 43° |
| 2026-05-06 01:05 | 24.49030 | 51.39727 | 7574 ft | 281 kts | 43° |
| 2026-05-06 01:05 | 24.50445 | 51.41160 | 7469 ft | 280 kts | 40° |
| 2026-05-06 01:06 | 24.52063 | 51.42347 | 7341 ft | 279 kts | 29° |
| 2026-05-06 01:06 | 24.53776 | 51.43361 | 7191 ft | 279 kts | 27° |
| 2026-05-06 01:06 | 24.55501 | 51.44342 | 7037 ft | 278 kts | 27° |
| 2026-05-06 01:06 | 24.57224 | 51.45309 | 6892 ft | 277 kts | 26° |
| 2026-05-06 01:07 | 24.58943 | 51.46266 | 6729 ft | 277 kts | 26° |
| 2026-05-06 01:07 | 24.60540 | 51.47153 | 6607 ft | 276 kts | 26° |
| 2026-05-06 01:07 | 24.62284 | 51.48119 | 6442 ft | 276 kts | 26° |
| 2026-05-06 01:07 | 24.63994 | 51.49066 | 6309 ft | 275 kts | 26° |
| 2026-05-06 01:08 | 24.65708 | 51.50014 | 6185 ft | 275 kts | 26° |
| 2026-05-06 01:08 | 24.67412 | 51.50958 | 6056 ft | 274 kts | 26° |
| 2026-05-06 01:08 | 24.69090 | 51.51886 | 5929 ft | 274 kts | 26° |
| 2026-05-06 01:08 | 24.70795 | 51.52830 | 5815 ft | 273 kts | 26° |
| 2026-05-06 01:09 | 24.72485 | 51.53765 | 5672 ft | 273 kts | 26° |
| 2026-05-06 01:09 | 24.74181 | 51.54704 | 5561 ft | 272 kts | 26° |
| 2026-05-06 01:09 | 24.75870 | 51.55640 | 5431 ft | 272 kts | 26° |
| 2026-05-06 01:09 | 24.77560 | 51.56576 | 5302 ft | 271 kts | 26° |
| 2026-05-06 01:10 | 24.79245 | 51.57511 | 5193 ft | 271 kts | 26° |
| 2026-05-06 01:10 | 24.80920 | 51.58439 | 5052 ft | 270 kts | 26° |
| 2026-05-06 01:10 | 24.82599 | 51.59370 | 4934 ft | 270 kts | 26° |
| 2026-05-06 01:10 | 24.84271 | 51.60298 | 4820 ft | 269 kts | 26° |
| 2026-05-06 01:11 | 24.85947 | 51.61228 | 4676 ft | 269 kts | 26° |
| 2026-05-06 01:11 | 24.87598 | 51.62144 | 4570 ft | 268 kts | 26° |
| 2026-05-06 01:11 | 24.89266 | 51.63071 | 4440 ft | 268 kts | 26° |
| 2026-05-06 01:11 | 24.90791 | 51.63917 | 4318 ft | 267 kts | 26° |
| 2026-05-06 01:12 | 24.92447 | 51.64838 | 4206 ft | 267 kts | 26° |
| 2026-05-06 01:12 | 24.94107 | 51.65760 | 4135 ft | 266 kts | 26° |
| 2026-05-06 01:12 | 24.95760 | 51.66679 | 4052 ft | 266 kts | 26° |
| 2026-05-06 01:12 | 24.97378 | 51.67579 | 3971 ft | 254 kts | 26° |
| 2026-05-06 01:13 | 24.98911 | 51.68432 | 3913 ft | 239 kts | 26° |
| 2026-05-06 01:13 | 25.00364 | 51.69241 | 3844 ft | 233 kts | 26° |
| 2026-05-06 01:13 | 25.01830 | 51.69997 | 3790 ft | 233 kts | 19° |
| 2026-05-06 01:13 | 25.03418 | 51.70180 | 3748 ft | 232 kts | 349° |
| 2026-05-06 01:14 | 25.06440 | 51.68991 | 3743 ft | 225 kts | 337° |
| 2026-05-06 01:14 | 25.07831 | 51.68363 | 3764 ft | 207 kts | 337° |
| 2026-05-06 01:14 | 25.09109 | 51.67791 | 3773 ft | 190 kts | 338° |
| 2026-05-06 01:15 | 25.10290 | 51.67271 | 3784 ft | 175 kts | 338° |
| 2026-05-06 01:15 | 25.11359 | 51.66801 | 3751 ft | 156 kts | 337° |
| 2026-05-06 01:15 | 25.12323 | 51.66376 | 3717 ft | 147 kts | 337° |
| 2026-05-06 01:15 | 25.13272 | 51.65913 | 3391 ft | 150 kts | 333° |
| 2026-05-06 01:16 | 25.14209 | 51.65433 | 3112 ft | 145 kts | 338° |
| 2026-05-06 01:16 | 25.15141 | 51.65060 | 2868 ft | 141 kts | 340° |
| 2026-05-06 01:16 | 25.16065 | 51.64699 | 2600 ft | 141 kts | 339° |
| 2026-05-06 01:16 | 25.16969 | 51.64326 | 2336 ft | 142 kts | 338° |
| 2026-05-06 01:17 | 25.17894 | 51.63925 | 1986 ft | 145 kts | 337° |
| 2026-05-06 01:17 | 25.18846 | 51.63503 | 1603 ft | 149 kts | 337° |
| 2026-05-06 01:17 | 25.19806 | 51.63077 | 1258 ft | 150 kts | 337° |
| 2026-05-06 01:17 | 25.20772 | 51.62646 | 960 ft | 145 kts | 337° |
| 2026-05-06 01:18 | 25.21665 | 51.62231 | 828 ft | 137 kts | 336° |
| 2026-05-06 01:18 | 25.22547 | 51.61827 | 698 ft | 137 kts | 339° |
| 2026-05-06 01:18 | 25.23441 | 51.61446 | 577 ft | 139 kts | 338° |
| 2026-05-06 01:18 | 25.24334 | 51.61062 | 364 ft | 139 kts | 338° |
| 2026-05-06 01:19 | 25.25236 | 51.60670 | 147 ft | 137 kts | 338° |
| 2026-05-06 01:19 | 25.26101 | 51.60289 | 37 ft | 130 kts | 338° |
| 2026-05-06 01:19 | 25.26846 | 51.59965 | 31 ft | 101 kts | 338° |
| 2026-05-06 01:19 | 25.27415 | 51.59713 | 33 ft | 76 kts | 338° |
| 2026-05-06 01:20 | 25.27848 | 51.59521 | 30 ft | 59 kts | 338° |
| 2026-05-06 01:20 | 25.28193 | 51.59369 | 33 ft | 50 kts | 338° |
| 2026-05-06 01:20 | 25.28315 | 51.59314 | 34 ft | 13 kts | 339° |
| 2026-05-06 01:20 | 25.28444 | 51.59261 | 34 ft | 24 kts | 340° |
| 2026-05-06 01:21 | 25.28560 | 51.59260 | 34 ft | 15 kts | 45° |
| 2026-05-06 01:21 | 25.28594 | 51.59361 | 36 ft | 11 kts | 96° |
| 2026-05-06 01:21 | 25.28531 | 51.59425 | 36 ft | 15 kts | 158° |
| 2026-05-06 01:21 | 25.28411 | 51.59481 | 36 ft | 23 kts | 157° |
| 2026-05-06 01:22 | 25.28246 | 51.59557 | 35 ft | 28 kts | 158° |
| 2026-05-06 01:22 | 25.28051 | 51.59637 | 35 ft | 31 kts | 160° |
| 2026-05-06 01:22 | 25.27859 | 51.59715 | 35 ft | 28 kts | 154° |
| 2026-05-06 01:22 | 25.27680 | 51.59801 | 35 ft | 28 kts | 158° |
| 2026-05-06 01:23 | 25.27512 | 51.59875 | 35 ft | 21 kts | 158° |
| 2026-05-06 01:23 | 25.27371 | 51.59937 | 35 ft | 23 kts | 158° |
| 2026-05-06 01:23 | 25.27219 | 51.60003 | 35 ft | 24 kts | 158° |
| 2026-05-06 01:23 | 25.27066 | 51.60072 | 34 ft | 25 kts | 158° |
| 2026-05-06 01:24 | 25.26903 | 51.60143 | 34 ft | 25 kts | 158° |
| 2026-05-06 01:24 | 25.26741 | 51.60217 | 34 ft | 26 kts | 157° |
| 2026-05-06 01:24 | 25.26572 | 51.60291 | 35 ft | 18 kts | 159° |
| 2026-05-06 01:24 | 25.26516 | 51.60398 | 36 ft | 19 kts | 71° |
| 2026-05-06 01:25 | 25.26570 | 51.60550 | 36 ft | 23 kts | 68° |
| 2026-05-06 01:25 | 25.26564 | 51.60704 | 36 ft | 21 kts | 115° |
| 2026-05-06 01:25 | 25.26492 | 51.60856 | 36 ft | 24 kts | 138° |
| 2026-05-06 01:25 | 25.26444 | 51.60951 | 36 ft | 8 kts | 67° |
| 2026-05-06 01:26 | 25.26467 | 51.60964 | 36 ft | 5 kts | 19° |
| 2026-05-06 01:26 | 25.26499 | 51.61001 | 36 ft | 8 kts | 57° |
| 2026-05-06 01:26 | 25.26511 | 51.61027 | 36 ft | 3 kts | 66° |
| 2026-05-06 01:26 | 25.26518 | 51.61045 | 36 ft | 2 kts | 68° |
| 2026-05-06 01:27 | 25.26521 | 51.61053 | 36 ft | 2 kts | 67° |
| 2026-05-06 01:27 | 25.26526 | 51.61066 | 36 ft | 3 kts | 68° |
| 2026-05-06 01:27 | 25.26529 | 51.61076 | 36 ft | 0 kts | 68° |